sensor_id;sensor_type;location;lat;lon;timestamp;temperature;humidity
17178;DHT22;8704;52.006;4.374;2023-05-16T00:01:23;9.20;1.00
17178;DHT22;8704;52.006;4.374;2023-05-16T00:03:55;9.00;1.00
17178;DHT22;8704;52.006;4.374;2023-05-16T00:06:24;9.10;1.00
17178;DHT22;8704;52.006;4.374;2023-05-16T00:08:52;9.30;1.00
17178;DHT22;8704;52.006;4.374;2023-05-16T00:11:20;8.90;1.00
17178;DHT22;8704;52.006;4.374;2023-05-16T00:13:50;8.90;1.00
17178;DHT22;8704;52.006;4.374;2023-05-16T00:16:18;9.00;1.00
17178;DHT22;8704;52.006;4.374;2023-05-16T00:18:47;9.60;1.00
17178;DHT22;8704;52.006;4.374;2023-05-16T00:21:15;8.90;1.00
17178;DHT22;8704;52.006;4.374;2023-05-16T00:23:43;8.90;1.00
17178;DHT22;8704;52.006;4.374;2023-05-16T00:26:11;8.80;1.00
17178;DHT22;8704;52.006;4.374;2023-05-16T00:28:39;8.80;1.00
17178;DHT22;8704;52.006;4.374;2023-05-16T00:31:08;8.80;1.00
17178;DHT22;8704;52.006;4.374;2023-05-16T00:33:36;8.80;1.00
17178;DHT22;8704;52.006;4.374;2023-05-16T00:36:05;8.80;1.00
17178;DHT22;8704;52.006;4.374;2023-05-16T00:38:33;8.80;1.00
17178;DHT22;8704;52.006;4.374;2023-05-16T00:41:01;8.70;1.00
17178;DHT22;8704;52.006;4.374;2023-05-16T00:43:29;8.70;1.00
17178;DHT22;8704;52.006;4.374;2023-05-16T00:45:57;9.80;1.00
17178;DHT22;8704;52.006;4.374;2023-05-16T00:48:27;8.70;1.00
17178;DHT22;8704;52.006;4.374;2023-05-16T00:50:55;8.70;1.00
17178;DHT22;8704;52.006;4.374;2023-05-16T00:53:24;8.70;1.00
17178;DHT22;8704;52.006;4.374;2023-05-16T00:55:52;8.70;1.00
17178;DHT22;8704;52.006;4.374;2023-05-16T00:58:21;8.70;1.00
17178;DHT22;8704;52.006;4.374;2023-05-16T01:00:49;8.70;1.00
17178;DHT22;8704;52.006;4.374;2023-05-16T01:03:17;8.70;1.00
17178;DHT22;8704;52.006;4.374;2023-05-16T01:05:47;8.70;1.00
17178;DHT22;8704;52.006;4.374;2023-05-16T01:08:16;8.70;1.00
17178;DHT22;8704;52.006;4.374;2023-05-16T01:10:51;8.70;1.00
17178;DHT22;8704;52.006;4.374;2023-05-16T01:13:26;8.70;1.00
17178;DHT22;8704;52.006;4.374;2023-05-16T01:16:04;8.70;1.00
17178;DHT22;8704;52.006;4.374;2023-05-16T01:18:38;8.60;1.00
17178;DHT22;8704;52.006;4.374;2023-05-16T01:21:14;8.70;1.00
17178;DHT22;8704;52.006;4.374;2023-05-16T01:23:50;8.70;1.00
17178;DHT22;8704;52.006;4.374;2023-05-16T01:26:21;8.70;1.00
17178;DHT22;8704;52.006;4.374;2023-05-16T01:28:50;8.70;1.00
17178;DHT22;8704;52.006;4.374;2023-05-16T01:31:19;8.60;1.00
17178;DHT22;8704;52.006;4.374;2023-05-16T01:33:47;8.70;1.00
17178;DHT22;8704;52.006;4.374;2023-05-16T01:36:21;8.70;1.00
17178;DHT22;8704;52.006;4.374;2023-05-16T01:39:00;8.80;1.00
17178;DHT22;8704;52.006;4.374;2023-05-16T01:41:38;8.70;1.00
17178;DHT22;8704;52.006;4.374;2023-05-16T01:44:13;8.90;1.00
17178;DHT22;8704;52.006;4.374;2023-05-16T01:46:45;8.60;1.00
17178;DHT22;8704;52.006;4.374;2023-05-16T01:49:16;8.60;1.00
17178;DHT22;8704;52.006;4.374;2023-05-16T01:51:50;8.80;1.00
17178;DHT22;8704;52.006;4.374;2023-05-16T01:54:20;8.70;1.00
17178;DHT22;8704;52.006;4.374;2023-05-16T01:56:54;8.70;1.00
17178;DHT22;8704;52.006;4.374;2023-05-16T01:59:23;8.70;1.00
17178;DHT22;8704;52.006;4.374;2023-05-16T02:01:52;8.70;1.00
17178;DHT22;8704;52.006;4.374;2023-05-16T02:04:21;8.70;1.00
17178;DHT22;8704;52.006;4.374;2023-05-16T02:06:50;8.70;1.00
17178;DHT22;8704;52.006;4.374;2023-05-16T02:09:19;8.70;1.00
17178;DHT22;8704;52.006;4.374;2023-05-16T02:11:47;8.70;1.00
17178;DHT22;8704;52.006;4.374;2023-05-16T02:14:16;8.80;1.00
17178;DHT22;8704;52.006;4.374;2023-05-16T02:16:44;8.60;1.00
17178;DHT22;8704;52.006;4.374;2023-05-16T02:19:12;8.60;1.00
17178;DHT22;8704;52.006;4.374;2023-05-16T02:21:40;8.70;1.00
17178;DHT22;8704;52.006;4.374;2023-05-16T02:24:08;8.60;1.00
17178;DHT22;8704;52.006;4.374;2023-05-16T02:26:36;8.60;1.00
17178;DHT22;8704;52.006;4.374;2023-05-16T02:29:04;8.60;1.00
17178;DHT22;8704;52.006;4.374;2023-05-16T02:31:34;8.60;1.00
17178;DHT22;8704;52.006;4.374;2023-05-16T02:34:02;8.50;1.00
17178;DHT22;8704;52.006;4.374;2023-05-16T02:36:30;8.50;1.00
17178;DHT22;8704;52.006;4.374;2023-05-16T02:39:00;8.50;1.00
17178;DHT22;8704;52.006;4.374;2023-05-16T02:41:27;8.50;1.00
17178;DHT22;8704;52.006;4.374;2023-05-16T02:43:55;8.50;1.00
17178;DHT22;8704;52.006;4.374;2023-05-16T02:46:25;8.50;1.00
17178;DHT22;8704;52.006;4.374;2023-05-16T02:48:55;8.50;1.00
17178;DHT22;8704;52.006;4.374;2023-05-16T02:51:24;8.50;1.00
17178;DHT22;8704;52.006;4.374;2023-05-16T02:53:53;8.50;1.00
17178;DHT22;8704;52.006;4.374;2023-05-16T02:56:22;8.50;1.00
17178;DHT22;8704;52.006;4.374;2023-05-16T02:58:52;8.50;1.00
17178;DHT22;8704;52.006;4.374;2023-05-16T03:01:20;8.50;1.00
17178;DHT22;8704;52.006;4.374;2023-05-16T03:03:48;8.50;1.00
17178;DHT22;8704;52.006;4.374;2023-05-16T03:06:18;8.50;1.00
17178;DHT22;8704;52.006;4.374;2023-05-16T03:08:46;8.50;1.00
17178;DHT22;8704;52.006;4.374;2023-05-16T03:11:14;9.40;1.00
17178;DHT22;8704;52.006;4.374;2023-05-16T03:13:43;8.50;1.00
17178;DHT22;8704;52.006;4.374;2023-05-16T03:16:12;8.40;1.00
17178;DHT22;8704;52.006;4.374;2023-05-16T03:18:41;8.40;1.00
17178;DHT22;8704;52.006;4.374;2023-05-16T03:21:09;8.40;1.00
17178;DHT22;8704;52.006;4.374;2023-05-16T03:23:38;8.40;1.00
17178;DHT22;8704;52.006;4.374;2023-05-16T03:26:06;8.40;1.00
17178;DHT22;8704;52.006;4.374;2023-05-16T03:28:35;8.50;1.00
17178;DHT22;8704;52.006;4.374;2023-05-16T03:31:03;8.40;1.00
17178;DHT22;8704;52.006;4.374;2023-05-16T03:33:31;8.40;1.00
17178;DHT22;8704;52.006;4.374;2023-05-16T03:35:59;8.40;1.00
17178;DHT22;8704;52.006;4.374;2023-05-16T03:38:27;8.40;1.00
17178;DHT22;8704;52.006;4.374;2023-05-16T03:40:57;8.50;1.00
17178;DHT22;8704;52.006;4.374;2023-05-16T03:43:25;8.70;1.00
17178;DHT22;8704;52.006;4.374;2023-05-16T03:45:53;8.60;1.00
17178;DHT22;8704;52.006;4.374;2023-05-16T03:48:21;8.50;1.00
17178;DHT22;8704;52.006;4.374;2023-05-16T03:50:49;8.70;1.00
17178;DHT22;8704;52.006;4.374;2023-05-16T03:53:18;8.60;1.00
17178;DHT22;8704;52.006;4.374;2023-05-16T03:55:46;8.60;1.00
17178;DHT22;8704;52.006;4.374;2023-05-16T03:58:16;8.60;1.00
17178;DHT22;8704;52.006;4.374;2023-05-16T04:00:44;8.60;1.00
17178;DHT22;8704;52.006;4.374;2023-05-16T04:03:12;8.60;1.00
17178;DHT22;8704;52.006;4.374;2023-05-16T04:05:40;8.60;1.00
17178;DHT22;8704;52.006;4.374;2023-05-16T04:08:09;8.60;1.00
17178;DHT22;8704;52.006;4.374;2023-05-16T04:10:37;8.60;1.00
17178;DHT22;8704;52.006;4.374;2023-05-16T04:13:05;8.70;1.00
17178;DHT22;8704;52.006;4.374;2023-05-16T04:15:34;8.70;1.00
17178;DHT22;8704;52.006;4.374;2023-05-16T04:18:02;8.70;1.00
17178;DHT22;8704;52.006;4.374;2023-05-16T04:20:30;8.70;1.00
17178;DHT22;8704;52.006;4.374;2023-05-16T04:22:59;8.70;1.00
17178;DHT22;8704;52.006;4.374;2023-05-16T04:25:27;8.60;1.00
17178;DHT22;8704;52.006;4.374;2023-05-16T04:27:55;8.80;1.00
17178;DHT22;8704;52.006;4.374;2023-05-16T04:30:23;8.70;99.90
17178;DHT22;8704;52.006;4.374;2023-05-16T04:32:53;8.70;99.90
17178;DHT22;8704;52.006;4.374;2023-05-16T04:35:20;8.70;99.90
17178;DHT22;8704;52.006;4.374;2023-05-16T04:37:48;8.80;99.90
17178;DHT22;8704;52.006;4.374;2023-05-16T04:40:16;8.80;1.00
17178;DHT22;8704;52.006;4.374;2023-05-16T04:42:44;8.90;1.00
17178;DHT22;8704;52.006;4.374;2023-05-16T04:45:13;9.60;1.00
17178;DHT22;8704;52.006;4.374;2023-05-16T04:47:41;9.00;1.00
17178;DHT22;8704;52.006;4.374;2023-05-16T04:50:10;9.40;1.00
17178;DHT22;8704;52.006;4.374;2023-05-16T04:52:38;9.00;1.00
17178;DHT22;8704;52.006;4.374;2023-05-16T04:55:07;9.00;1.00
17178;DHT22;8704;52.006;4.374;2023-05-16T04:57:35;9.00;1.00
17178;DHT22;8704;52.006;4.374;2023-05-16T05:00:05;9.00;1.00
17178;DHT22;8704;52.006;4.374;2023-05-16T05:02:36;9.00;1.00
17178;DHT22;8704;52.006;4.374;2023-05-16T05:05:05;9.00;1.00
17178;DHT22;8704;52.006;4.374;2023-05-16T05:07:35;9.10;1.00
17178;DHT22;8704;52.006;4.374;2023-05-16T05:10:04;9.10;1.00
17178;DHT22;8704;52.006;4.374;2023-05-16T05:12:34;9.10;1.00
17178;DHT22;8704;52.006;4.374;2023-05-16T05:15:02;9.10;1.00
17178;DHT22;8704;52.006;4.374;2023-05-16T05:17:30;9.20;1.00
17178;DHT22;8704;52.006;4.374;2023-05-16T05:19:58;9.20;1.00
17178;DHT22;8704;52.006;4.374;2023-05-16T05:22:28;9.60;1.00
17178;DHT22;8704;52.006;4.374;2023-05-16T05:24:58;9.40;1.00
17178;DHT22;8704;52.006;4.374;2023-05-16T05:27:26;9.30;1.00
17178;DHT22;8704;52.006;4.374;2023-05-16T05:29:54;9.40;1.00
17178;DHT22;8704;52.006;4.374;2023-05-16T05:32:22;9.30;1.00
17178;DHT22;8704;52.006;4.374;2023-05-16T05:34:50;9.40;1.00
17178;DHT22;8704;52.006;4.374;2023-05-16T05:37:18;9.90;1.00
17178;DHT22;8704;52.006;4.374;2023-05-16T05:39:46;9.40;1.00
17178;DHT22;8704;52.006;4.374;2023-05-16T05:42:16;9.40;1.00
17178;DHT22;8704;52.006;4.374;2023-05-16T05:44:43;9.50;1.00
17178;DHT22;8704;52.006;4.374;2023-05-16T05:47:11;9.60;1.00
17178;DHT22;8704;52.006;4.374;2023-05-16T05:49:40;9.60;1.00
17178;DHT22;8704;52.006;4.374;2023-05-16T05:52:08;9.60;1.00
17178;DHT22;8704;52.006;4.374;2023-05-16T05:54:36;9.70;1.00
17178;DHT22;8704;52.006;4.374;2023-05-16T05:57:04;9.70;1.00
17178;DHT22;8704;52.006;4.374;2023-05-16T05:59:33;9.80;1.00
17178;DHT22;8704;52.006;4.374;2023-05-16T06:02:01;9.80;1.00
17178;DHT22;8704;52.006;4.374;2023-05-16T06:04:29;9.90;1.00
17178;DHT22;8704;52.006;4.374;2023-05-16T06:06:57;10.00;1.00
17178;DHT22;8704;52.006;4.374;2023-05-16T06:09:25;10.10;1.00
17178;DHT22;8704;52.006;4.374;2023-05-16T06:11:53;10.50;1.00
17178;DHT22;8704;52.006;4.374;2023-05-16T06:14:21;10.10;1.00
17178;DHT22;8704;52.006;4.374;2023-05-16T06:16:51;10.40;1.00
17178;DHT22;8704;52.006;4.374;2023-05-16T06:19:19;10.20;1.00
17178;DHT22;8704;52.006;4.374;2023-05-16T06:21:47;10.20;1.00
17178;DHT22;8704;52.006;4.374;2023-05-16T06:24:15;10.90;1.00
17178;DHT22;8704;52.006;4.374;2023-05-16T06:26:42;10.50;1.00
17178;DHT22;8704;52.006;4.374;2023-05-16T06:29:11;10.40;1.00
17178;DHT22;8704;52.006;4.374;2023-05-16T06:31:39;10.40;1.00
17178;DHT22;8704;52.006;4.374;2023-05-16T06:34:09;10.70;1.00
17178;DHT22;8704;52.006;4.374;2023-05-16T06:36:37;10.50;1.00
17178;DHT22;8704;52.006;4.374;2023-05-16T06:39:05;10.50;1.00
17178;DHT22;8704;52.006;4.374;2023-05-16T06:41:33;10.60;1.00
17178;DHT22;8704;52.006;4.374;2023-05-16T06:44:01;10.60;1.00
17178;DHT22;8704;52.006;4.374;2023-05-16T06:46:29;10.70;1.00
17178;DHT22;8704;52.006;4.374;2023-05-16T06:48:57;11.20;1.00
17178;DHT22;8704;52.006;4.374;2023-05-16T06:51:26;10.70;1.00
17178;DHT22;8704;52.006;4.374;2023-05-16T06:53:54;10.80;1.00
17178;DHT22;8704;52.006;4.374;2023-05-16T06:56:22;10.70;99.90
17178;DHT22;8704;52.006;4.374;2023-05-16T06:58:50;10.90;1.00
17178;DHT22;8704;52.006;4.374;2023-05-16T07:01:18;10.90;1.00
17178;DHT22;8704;52.006;4.374;2023-05-16T07:03:46;10.90;99.90
17178;DHT22;8704;52.006;4.374;2023-05-16T07:06:14;11.00;1.00
17178;DHT22;8704;52.006;4.374;2023-05-16T07:08:43;11.00;99.90
17178;DHT22;8704;52.006;4.374;2023-05-16T07:11:11;11.90;99.90
17178;DHT22;8704;52.006;4.374;2023-05-16T07:13:39;11.20;99.90
17178;DHT22;8704;52.006;4.374;2023-05-16T07:16:07;11.30;99.90
17178;DHT22;8704;52.006;4.374;2023-05-16T07:18:36;11.40;1.00
17178;DHT22;8704;52.006;4.374;2023-05-16T07:21:04;11.30;99.90
17178;DHT22;8704;52.006;4.374;2023-05-16T07:23:32;11.40;99.90
17178;DHT22;8704;52.006;4.374;2023-05-16T07:26:01;11.50;99.90
17178;DHT22;8704;52.006;4.374;2023-05-16T07:28:29;11.50;99.90
17178;DHT22;8704;52.006;4.374;2023-05-16T07:30:57;11.60;99.90
17178;DHT22;8704;52.006;4.374;2023-05-16T07:33:26;11.70;99.90
17178;DHT22;8704;52.006;4.374;2023-05-16T07:35:54;11.70;99.90
17178;DHT22;8704;52.006;4.374;2023-05-16T07:38:40;12.40;99.90
17178;DHT22;8704;52.006;4.374;2023-05-16T07:41:10;11.70;99.90
17178;DHT22;8704;52.006;4.374;2023-05-16T07:43:38;11.80;99.90
17178;DHT22;8704;52.006;4.374;2023-05-16T07:46:06;12.30;99.90
17178;DHT22;8704;52.006;4.374;2023-05-16T07:48:34;11.80;99.90
17178;DHT22;8704;52.006;4.374;2023-05-16T07:51:02;12.10;99.90
17178;DHT22;8704;52.006;4.374;2023-05-16T07:53:30;11.80;99.90
17178;DHT22;8704;52.006;4.374;2023-05-16T07:55:58;11.90;99.90
17178;DHT22;8704;52.006;4.374;2023-05-16T07:58:28;11.90;99.90
17178;DHT22;8704;52.006;4.374;2023-05-16T08:00:56;11.90;99.90
17178;DHT22;8704;52.006;4.374;2023-05-16T08:03:24;11.90;99.90
17178;DHT22;8704;52.006;4.374;2023-05-16T08:05:52;11.90;99.90
17178;DHT22;8704;52.006;4.374;2023-05-16T08:08:20;12.40;99.90
17178;DHT22;8704;52.006;4.374;2023-05-16T08:10:48;12.30;99.90
17178;DHT22;8704;52.006;4.374;2023-05-16T08:13:16;12.30;99.90
17178;DHT22;8704;52.006;4.374;2023-05-16T08:15:45;12.40;1.00
17178;DHT22;8704;52.006;4.374;2023-05-16T08:18:14;13.70;99.90
17178;DHT22;8704;52.006;4.374;2023-05-16T08:20:45;12.30;99.90
17178;DHT22;8704;52.006;4.374;2023-05-16T08:23:13;12.80;99.90
17178;DHT22;8704;52.006;4.374;2023-05-16T08:25:41;12.20;99.90
17178;DHT22;8704;52.006;4.374;2023-05-16T08:28:09;12.20;99.90
17178;DHT22;8704;52.006;4.374;2023-05-16T08:30:38;12.30;99.90
17178;DHT22;8704;52.006;4.374;2023-05-16T08:33:10;12.20;99.90
17178;DHT22;8704;52.006;4.374;2023-05-16T08:35:41;12.60;99.90
17178;DHT22;8704;52.006;4.374;2023-05-16T08:38:09;12.50;99.90
17178;DHT22;8704;52.006;4.374;2023-05-16T08:40:39;12.70;99.90
17178;DHT22;8704;52.006;4.374;2023-05-16T08:43:08;12.90;99.90
17178;DHT22;8704;52.006;4.374;2023-05-16T08:45:36;12.90;99.90
17178;DHT22;8704;52.006;4.374;2023-05-16T08:48:06;12.80;99.90
17178;DHT22;8704;52.006;4.374;2023-05-16T08:50:37;12.90;99.90
17178;DHT22;8704;52.006;4.374;2023-05-16T08:53:08;13.70;99.90
17178;DHT22;8704;52.006;4.374;2023-05-16T08:55:40;13.20;99.90
17178;DHT22;8704;52.006;4.374;2023-05-16T08:58:09;13.20;99.90
17178;DHT22;8704;52.006;4.374;2023-05-16T09:00:38;13.20;99.90
17178;DHT22;8704;52.006;4.374;2023-05-16T09:03:07;13.30;99.90
17178;DHT22;8704;52.006;4.374;2023-05-16T09:05:36;13.90;99.90
17178;DHT22;8704;52.006;4.374;2023-05-16T09:08:05;13.10;99.90
17178;DHT22;8704;52.006;4.374;2023-05-16T09:10:33;13.20;99.90
17178;DHT22;8704;52.006;4.374;2023-05-16T09:13:01;13.30;99.90
17178;DHT22;8704;52.006;4.374;2023-05-16T09:15:31;13.20;99.90
17178;DHT22;8704;52.006;4.374;2023-05-16T09:18:00;13.80;99.90
17178;DHT22;8704;52.006;4.374;2023-05-16T09:20:29;13.50;99.90
17178;DHT22;8704;52.006;4.374;2023-05-16T09:22:59;13.60;99.90
17178;DHT22;8704;52.006;4.374;2023-05-16T09:25:28;13.50;99.90
17178;DHT22;8704;52.006;4.374;2023-05-16T09:28:00;14.00;99.90
17178;DHT22;8704;52.006;4.374;2023-05-16T09:30:30;13.60;99.90
17178;DHT22;8704;52.006;4.374;2023-05-16T09:32:59;13.80;99.90
17178;DHT22;8704;52.006;4.374;2023-05-16T09:35:28;13.50;99.90
17178;DHT22;8704;52.006;4.374;2023-05-16T09:38:14;13.60;99.90
17178;DHT22;8704;52.006;4.374;2023-05-16T09:40:43;13.80;99.90
17178;DHT22;8704;52.006;4.374;2023-05-16T09:43:14;13.70;99.90
17178;DHT22;8704;52.006;4.374;2023-05-16T09:45:46;13.70;99.90
17178;DHT22;8704;52.006;4.374;2023-05-16T09:48:15;14.60;99.90
17178;DHT22;8704;52.006;4.374;2023-05-16T09:50:49;13.80;99.90
17178;DHT22;8704;52.006;4.374;2023-05-16T09:53:26;14.10;99.90
17178;DHT22;8704;52.006;4.374;2023-05-16T09:56:01;14.70;99.90
17178;DHT22;8704;52.006;4.374;2023-05-16T09:58:30;13.90;99.90
17178;DHT22;8704;52.006;4.374;2023-05-16T10:01:00;13.70;99.90
17178;DHT22;8704;52.006;4.374;2023-05-16T10:03:28;14.40;99.90
17178;DHT22;8704;52.006;4.374;2023-05-16T10:05:56;14.00;99.90
17178;DHT22;8704;52.006;4.374;2023-05-16T10:08:26;14.60;99.90
17178;DHT22;8704;52.006;4.374;2023-05-16T10:10:54;14.20;99.90
17178;DHT22;8704;52.006;4.374;2023-05-16T10:13:26;14.30;99.90
17178;DHT22;8704;52.006;4.374;2023-05-16T10:15:57;14.30;99.90
17178;DHT22;8704;52.006;4.374;2023-05-16T10:18:29;14.10;99.90
17178;DHT22;8704;52.006;4.374;2023-05-16T10:21:03;14.10;99.90
17178;DHT22;8704;52.006;4.374;2023-05-16T10:23:35;14.20;99.90
17178;DHT22;8704;52.006;4.374;2023-05-16T10:26:05;14.10;99.90
17178;DHT22;8704;52.006;4.374;2023-05-16T10:28:34;14.40;99.90
17178;DHT22;8704;52.006;4.374;2023-05-16T10:31:03;14.60;99.90
17178;DHT22;8704;52.006;4.374;2023-05-16T10:33:32;14.80;99.90
17178;DHT22;8704;52.006;4.374;2023-05-16T10:36:03;14.70;99.90
17178;DHT22;8704;52.006;4.374;2023-05-16T10:38:34;14.90;99.90
17178;DHT22;8704;52.006;4.374;2023-05-16T10:41:03;15.20;99.90
17178;DHT22;8704;52.006;4.374;2023-05-16T10:43:31;14.70;99.90
17178;DHT22;8704;52.006;4.374;2023-05-16T10:46:02;14.70;99.90
17178;DHT22;8704;52.006;4.374;2023-05-16T10:48:32;15.20;99.90
17178;DHT22;8704;52.006;4.374;2023-05-16T10:51:01;15.20;99.90
17178;DHT22;8704;52.006;4.374;2023-05-16T10:53:31;15.70;99.90
17178;DHT22;8704;52.006;4.374;2023-05-16T10:56:08;15.00;99.90
17178;DHT22;8704;52.006;4.374;2023-05-16T10:58:45;15.30;99.90
17178;DHT22;8704;52.006;4.374;2023-05-16T11:01:19;15.60;99.90
17178;DHT22;8704;52.006;4.374;2023-05-16T11:04:07;15.90;99.90
17178;DHT22;8704;52.006;4.374;2023-05-16T11:06:44;15.80;99.90
17178;DHT22;8704;52.006;4.374;2023-05-16T11:09:26;15.90;99.90
17178;DHT22;8704;52.006;4.374;2023-05-16T11:11:59;16.10;99.90
17178;DHT22;8704;52.006;4.374;2023-05-16T11:14:38;15.80;99.90
17178;DHT22;8704;52.006;4.374;2023-05-16T11:17:09;16.10;99.90
17178;DHT22;8704;52.006;4.374;2023-05-16T11:19:41;16.00;99.90
17178;DHT22;8704;52.006;4.374;2023-05-16T11:22:21;16.10;99.90
17178;DHT22;8704;52.006;4.374;2023-05-16T11:24:51;16.10;99.90
17178;DHT22;8704;52.006;4.374;2023-05-16T11:27:23;16.20;99.90
17178;DHT22;8704;52.006;4.374;2023-05-16T11:29:52;16.40;99.90
17178;DHT22;8704;52.006;4.374;2023-05-16T11:32:21;16.20;99.90
17178;DHT22;8704;52.006;4.374;2023-05-16T11:34:50;16.40;99.90
17178;DHT22;8704;52.006;4.374;2023-05-16T11:37:19;16.60;99.90
17178;DHT22;8704;52.006;4.374;2023-05-16T11:39:48;16.80;99.90
17178;DHT22;8704;52.006;4.374;2023-05-16T11:42:16;17.00;99.90
17178;DHT22;8704;52.006;4.374;2023-05-16T11:44:46;17.40;99.90
17178;DHT22;8704;52.006;4.374;2023-05-16T11:47:14;17.10;99.90
17178;DHT22;8704;52.006;4.374;2023-05-16T11:49:42;17.00;99.90
17178;DHT22;8704;52.006;4.374;2023-05-16T11:52:11;17.40;99.90
17178;DHT22;8704;52.006;4.374;2023-05-16T11:54:40;17.10;99.90
17178;DHT22;8704;52.006;4.374;2023-05-16T11:57:08;17.10;99.90
17178;DHT22;8704;52.006;4.374;2023-05-16T11:59:36;17.60;99.90
17178;DHT22;8704;52.006;4.374;2023-05-16T12:02:07;17.30;99.90
17178;DHT22;8704;52.006;4.374;2023-05-16T12:04:35;17.40;99.90
17178;DHT22;8704;52.006;4.374;2023-05-16T12:07:05;17.40;99.90
17178;DHT22;8704;52.006;4.374;2023-05-16T12:09:33;17.40;99.90
17178;DHT22;8704;52.006;4.374;2023-05-16T12:12:04;17.60;99.90
17178;DHT22;8704;52.006;4.374;2023-05-16T12:14:32;17.90;99.90
17178;DHT22;8704;52.006;4.374;2023-05-16T12:17:00;18.10;99.90
17178;DHT22;8704;52.006;4.374;2023-05-16T12:19:31;18.30;99.90
17178;DHT22;8704;52.006;4.374;2023-05-16T12:22:00;18.50;99.90
17178;DHT22;8704;52.006;4.374;2023-05-16T12:24:29;18.00;99.90
17178;DHT22;8704;52.006;4.374;2023-05-16T12:26:57;17.90;99.90
17178;DHT22;8704;52.006;4.374;2023-05-16T12:29:25;18.10;99.90
17178;DHT22;8704;52.006;4.374;2023-05-16T12:31:53;18.60;99.90
17178;DHT22;8704;52.006;4.374;2023-05-16T12:34:21;18.30;99.90
17178;DHT22;8704;52.006;4.374;2023-05-16T12:36:52;18.50;99.90
17178;DHT22;8704;52.006;4.374;2023-05-16T12:39:21;18.50;99.90
17178;DHT22;8704;52.006;4.374;2023-05-16T12:41:49;18.90;99.90
17178;DHT22;8704;52.006;4.374;2023-05-16T12:44:18;18.60;99.90
17178;DHT22;8704;52.006;4.374;2023-05-16T12:46:48;18.30;99.90
17178;DHT22;8704;52.006;4.374;2023-05-16T12:49:19;18.40;99.90
17178;DHT22;8704;52.006;4.374;2023-05-16T12:51:49;18.70;99.90
17178;DHT22;8704;52.006;4.374;2023-05-16T12:54:19;19.20;99.90
17178;DHT22;8704;52.006;4.374;2023-05-16T12:56:48;19.20;99.90
17178;DHT22;8704;52.006;4.374;2023-05-16T12:59:17;18.80;99.90
17178;DHT22;8704;52.006;4.374;2023-05-16T13:01:46;19.20;99.90
17178;DHT22;8704;52.006;4.374;2023-05-16T13:04:14;19.40;99.90
17178;DHT22;8704;52.006;4.374;2023-05-16T13:06:45;19.60;99.90
17178;DHT22;8704;52.006;4.374;2023-05-16T13:09:16;19.50;99.90
17178;DHT22;8704;52.006;4.374;2023-05-16T13:11:46;19.10;99.90
17178;DHT22;8704;52.006;4.374;2023-05-16T13:14:14;20.10;99.90
17178;DHT22;8704;52.006;4.374;2023-05-16T13:16:43;20.10;99.90
17178;DHT22;8704;52.006;4.374;2023-05-16T13:19:11;19.70;99.90
17178;DHT22;8704;52.006;4.374;2023-05-16T13:21:39;19.30;99.90
17178;DHT22;8704;52.006;4.374;2023-05-16T13:24:07;19.70;99.90
17178;DHT22;8704;52.006;4.374;2023-05-16T13:26:35;19.80;99.90
17178;DHT22;8704;52.006;4.374;2023-05-16T13:29:05;20.10;99.90
17178;DHT22;8704;52.006;4.374;2023-05-16T13:31:35;20.50;99.90
17178;DHT22;8704;52.006;4.374;2023-05-16T13:34:03;20.50;99.90
17178;DHT22;8704;52.006;4.374;2023-05-16T13:36:32;20.40;99.90
17178;DHT22;8704;52.006;4.374;2023-05-16T13:39:19;20.80;99.90
17178;DHT22;8704;52.006;4.374;2023-05-16T13:41:47;20.50;99.90
17178;DHT22;8704;52.006;4.374;2023-05-16T13:44:17;20.90;99.90
17178;DHT22;8704;52.006;4.374;2023-05-16T13:46:45;21.10;99.90
17178;DHT22;8704;52.006;4.374;2023-05-16T13:49:13;20.80;99.90
17178;DHT22;8704;52.006;4.374;2023-05-16T13:51:41;20.60;99.90
17178;DHT22;8704;52.006;4.374;2023-05-16T13:54:09;21.10;99.90
17178;DHT22;8704;52.006;4.374;2023-05-16T13:56:37;20.80;99.90
17178;DHT22;8704;52.006;4.374;2023-05-16T13:59:05;20.70;99.90
17178;DHT22;8704;52.006;4.374;2023-05-16T14:01:36;21.00;99.90
17178;DHT22;8704;52.006;4.374;2023-05-16T14:04:04;21.50;99.90
17178;DHT22;8704;52.006;4.374;2023-05-16T14:06:32;22.00;99.90
17178;DHT22;8704;52.006;4.374;2023-05-16T14:09:00;21.90;99.90
17178;DHT22;8704;52.006;4.374;2023-05-16T14:11:29;21.60;99.90
17178;DHT22;8704;52.006;4.374;2023-05-16T14:13:57;21.90;99.90
17178;DHT22;8704;52.006;4.374;2023-05-16T14:16:25;21.70;99.90
17178;DHT22;8704;52.006;4.374;2023-05-16T14:18:54;21.30;99.90
17178;DHT22;8704;52.006;4.374;2023-05-16T14:21:22;21.40;99.90
17178;DHT22;8704;52.006;4.374;2023-05-16T14:23:50;21.60;99.90
17178;DHT22;8704;52.006;4.374;2023-05-16T14:26:19;22.00;99.90
17178;DHT22;8704;52.006;4.374;2023-05-16T14:28:50;22.10;99.90
17178;DHT22;8704;52.006;4.374;2023-05-16T14:31:18;22.20;99.90
17178;DHT22;8704;52.006;4.374;2023-05-16T14:33:46;22.40;99.90
17178;DHT22;8704;52.006;4.374;2023-05-16T14:36:16;22.40;99.90
17178;DHT22;8704;52.006;4.374;2023-05-16T14:38:44;22.30;99.90
17178;DHT22;8704;52.006;4.374;2023-05-16T14:41:12;22.70;99.90
17178;DHT22;8704;52.006;4.374;2023-05-16T14:43:40;21.80;99.90
17178;DHT22;8704;52.006;4.374;2023-05-16T14:46:08;21.50;99.90
17178;DHT22;8704;52.006;4.374;2023-05-16T14:48:36;22.30;99.90
17178;DHT22;8704;52.006;4.374;2023-05-16T14:51:05;23.30;99.90
17178;DHT22;8704;52.006;4.374;2023-05-16T14:53:35;23.20;99.90
17178;DHT22;8704;52.006;4.374;2023-05-16T14:56:03;22.70;99.90
17178;DHT22;8704;52.006;4.374;2023-05-16T14:58:31;22.10;99.90
17178;DHT22;8704;52.006;4.374;2023-05-16T15:00:59;22.10;99.90
17178;DHT22;8704;52.006;4.374;2023-05-16T15:03:27;22.30;99.90
17178;DHT22;8704;52.006;4.374;2023-05-16T15:06:09;22.50;99.90
17178;DHT22;8704;52.006;4.374;2023-05-16T15:08:38;21.70;99.90
17178;DHT22;8704;52.006;4.374;2023-05-16T15:11:06;21.60;99.90
17178;DHT22;8704;52.006;4.374;2023-05-16T15:13:34;21.40;99.90
17178;DHT22;8704;52.006;4.374;2023-05-16T15:16:02;20.80;99.90
17178;DHT22;8704;52.006;4.374;2023-05-16T15:18:30;20.20;99.90
17178;DHT22;8704;52.006;4.374;2023-05-16T15:20:58;20.40;99.90
17178;DHT22;8704;52.006;4.374;2023-05-16T15:23:27;20.00;99.90
17178;DHT22;8704;52.006;4.374;2023-05-16T15:25:56;20.00;99.90
17178;DHT22;8704;52.006;4.374;2023-05-16T15:28:24;19.80;99.90
17178;DHT22;8704;52.006;4.374;2023-05-16T15:30:52;19.80;99.90
17178;DHT22;8704;52.006;4.374;2023-05-16T15:33:20;19.20;99.90
17178;DHT22;8704;52.006;4.374;2023-05-16T15:35:48;18.80;99.90
17178;DHT22;8704;52.006;4.374;2023-05-16T15:38:17;19.00;99.90
17178;DHT22;8704;52.006;4.374;2023-05-16T15:40:45;17.80;99.90
17178;DHT22;8704;52.006;4.374;2023-05-16T15:43:25;18.20;99.90
17178;DHT22;8704;52.006;4.374;2023-05-16T15:45:53;17.90;99.90
17178;DHT22;8704;52.006;4.374;2023-05-16T15:48:21;18.40;99.90
17178;DHT22;8704;52.006;4.374;2023-05-16T15:50:49;18.40;99.90
17178;DHT22;8704;52.006;4.374;2023-05-16T15:53:17;18.00;99.90
17178;DHT22;8704;52.006;4.374;2023-05-16T15:55:45;18.40;99.90
17178;DHT22;8704;52.006;4.374;2023-05-16T15:58:13;18.30;99.90
17178;DHT22;8704;52.006;4.374;2023-05-16T16:00:42;19.00;99.90
17178;DHT22;8704;52.006;4.374;2023-05-16T16:03:11;18.70;99.90
17178;DHT22;8704;52.006;4.374;2023-05-16T16:05:39;18.10;99.90
17178;DHT22;8704;52.006;4.374;2023-05-16T16:08:07;18.40;99.90
17178;DHT22;8704;52.006;4.374;2023-05-16T16:10:35;18.60;99.90
17178;DHT22;8704;52.006;4.374;2023-05-16T16:13:03;18.90;99.90